sensor_id;sensor_type;location;lat;lon;timestamp;P1;durP1;ratioP1;P2;durP2;ratioP2
80119;SDS011;69425;55.040;82.918;2023-12-22T00:04:25;8.65;;;2.30;;
80119;SDS011;69425;55.040;82.918;2023-12-22T00:09:26;6.32;;;2.40;;
80119;SDS011;69425;55.040;82.918;2023-12-22T00:14:28;4.10;;;1.60;;
80119;SDS011;69425;55.040;82.918;2023-12-22T00:19:30;4.03;;;2.25;;
80119;SDS011;69425;55.040;82.918;2023-12-22T00:24:32;8.32;;;1.83;;
80119;SDS011;69425;55.040;82.918;2023-12-22T00:29:33;5.95;;;2.63;;
80119;SDS011;69425;55.040;82.918;2023-12-22T00:34:36;2.85;;;1.27;;
80119;SDS011;69425;55.040;82.918;2023-12-22T00:39:37;3.72;;;2.03;;
80119;SDS011;69425;55.040;82.918;2023-12-22T00:44:38;3.65;;;1.45;;
80119;SDS011;69425;55.040;82.918;2023-12-22T00:49:41;2.08;;;1.10;;
80119;SDS011;69425;55.040;82.918;2023-12-22T00:54:42;3.08;;;1.40;;
80119;SDS011;69425;55.040;82.918;2023-12-22T00:59:43;1.75;;;0.70;;
80119;SDS011;69425;55.040;82.918;2023-12-22T01:04:46;1.58;;;1.02;;
80119;SDS011;69425;55.040;82.918;2023-12-22T01:09:47;3.78;;;1.23;;
80119;SDS011;69425;55.040;82.918;2023-12-22T01:14:48;1.77;;;0.75;;
80119;SDS011;69425;55.040;82.918;2023-12-22T01:19:51;3.17;;;1.23;;
80119;SDS011;69425;55.040;82.918;2023-12-22T01:24:52;2.67;;;1.10;;
80119;SDS011;69425;55.040;82.918;2023-12-22T01:29:54;2.55;;;1.38;;
80119;SDS011;69425;55.040;82.918;2023-12-22T01:34:57;3.13;;;1.02;;
80119;SDS011;69425;55.040;82.918;2023-12-22T01:39:58;2.45;;;1.15;;
80119;SDS011;69425;55.040;82.918;2023-12-22T01:44:59;3.80;;;0.98;;
80119;SDS011;69425;55.040;82.918;2023-12-22T01:50:02;1.77;;;1.20;;
80119;SDS011;69425;55.040;82.918;2023-12-22T01:55:05;3.00;;;0.80;;
80119;SDS011;69425;55.040;82.918;2023-12-22T02:00:07;2.72;;;0.90;;
80119;SDS011;69425;55.040;82.918;2023-12-22T02:05:10;1.90;;;1.17;;
80119;SDS011;69425;55.040;82.918;2023-12-22T02:10:12;1.85;;;0.93;;
80119;SDS011;69425;55.040;82.918;2023-12-22T02:15:13;2.47;;;1.20;;
80119;SDS011;69425;55.040;82.918;2023-12-22T02:20:16;0.90;;;0.73;;
80119;SDS011;69425;55.040;82.918;2023-12-22T02:25:19;3.88;;;0.98;;
80119;SDS011;69425;55.040;82.918;2023-12-22T02:30:23;2.10;;;1.02;;
80119;SDS011;69425;55.040;82.918;2023-12-22T02:35:26;2.25;;;1.50;;
80119;SDS011;69425;55.040;82.918;2023-12-22T02:40:30;1.13;;;0.85;;
80119;SDS011;69425;55.040;82.918;2023-12-22T02:45:32;2.67;;;1.00;;
80119;SDS011;69425;55.040;82.918;2023-12-22T02:50:33;2.35;;;1.40;;
80119;SDS011;69425;55.040;82.918;2023-12-22T02:55:36;1.83;;;1.40;;
80119;SDS011;69425;55.040;82.918;2023-12-22T03:00:37;3.13;;;1.23;;
80119;SDS011;69425;55.040;82.918;2023-12-22T03:05:38;0.90;;;0.65;;
80119;SDS011;69425;55.040;82.918;2023-12-22T03:10:41;2.88;;;1.25;;
80119;SDS011;69425;55.040;82.918;2023-12-22T03:15:42;6.07;;;1.83;;
80119;SDS011;69425;55.040;82.918;2023-12-22T03:20:43;5.50;;;1.65;;
80119;SDS011;69425;55.040;82.918;2023-12-22T03:25:46;2.08;;;0.98;;
80119;SDS011;69425;55.040;82.918;2023-12-22T03:35:48;1.65;;;1.27;;
80119;SDS011;69425;55.040;82.918;2023-12-22T03:40:51;1.95;;;1.20;;
80119;SDS011;69425;55.040;82.918;2023-12-22T03:45:52;3.15;;;0.82;;
80119;SDS011;69425;55.040;82.918;2023-12-22T03:50:53;1.40;;;1.08;;
80119;SDS011;69425;55.040;82.918;2023-12-22T03:55:56;1.60;;;0.80;;
80119;SDS011;69425;55.040;82.918;2023-12-22T04:00:57;2.95;;;1.40;;
80119;SDS011;69425;55.040;82.918;2023-12-22T04:06:01;1.85;;;1.23;;
80119;SDS011;69425;55.040;82.918;2023-12-22T04:11:04;2.40;;;0.90;;
80119;SDS011;69425;55.040;82.918;2023-12-22T04:16:05;1.83;;;1.23;;
80119;SDS011;69425;55.040;82.918;2023-12-22T04:21:07;2.45;;;1.10;;
80119;SDS011;69425;55.040;82.918;2023-12-22T04:26:09;2.70;;;0.93;;
80119;SDS011;69425;55.040;82.918;2023-12-22T04:31:10;1.48;;;0.88;;
80119;SDS011;69425;55.040;82.918;2023-12-22T04:36:12;2.22;;;1.23;;
80119;SDS011;69425;55.040;82.918;2023-12-22T04:41:15;2.80;;;1.00;;
80119;SDS011;69425;55.040;82.918;2023-12-22T04:46:19;3.67;;;1.05;;
80119;SDS011;69425;55.040;82.918;2023-12-22T04:51:20;2.17;;;1.13;;
80119;SDS011;69425;55.040;82.918;2023-12-22T04:56:23;0.90;;;0.22;;
80119;SDS011;69425;55.040;82.918;2023-12-22T05:01:24;2.10;;;1.08;;
80119;SDS011;69425;55.040;82.918;2023-12-22T05:06:25;1.30;;;0.80;;
80119;SDS011;69425;55.040;82.918;2023-12-22T05:11:28;2.38;;;1.48;;
80119;SDS011;69425;55.040;82.918;2023-12-22T05:16:29;0.98;;;0.68;;
80119;SDS011;69425;55.040;82.918;2023-12-22T05:21:30;2.80;;;1.70;;
80119;SDS011;69425;55.040;82.918;2023-12-22T05:26:33;3.58;;;1.38;;
80119;SDS011;69425;55.040;82.918;2023-12-22T05:31:34;3.78;;;1.50;;
80119;SDS011;69425;55.040;82.918;2023-12-22T05:36:36;1.77;;;0.95;;
80119;SDS011;69425;55.040;82.918;2023-12-22T05:41:38;3.60;;;0.95;;
80119;SDS011;69425;55.040;82.918;2023-12-22T05:46:40;4.25;;;1.85;;
80119;SDS011;69425;55.040;82.918;2023-12-22T05:51:41;2.90;;;1.40;;
80119;SDS011;69425;55.040;82.918;2023-12-22T05:56:44;3.33;;;2.10;;
80119;SDS011;69425;55.040;82.918;2023-12-22T06:01:45;1.92;;;1.40;;
80119;SDS011;69425;55.040;82.918;2023-12-22T06:06:46;3.22;;;1.73;;
80119;SDS011;69425;55.040;82.918;2023-12-22T06:11:49;1.13;;;0.60;;
80119;SDS011;69425;55.040;82.918;2023-12-22T06:16:50;1.40;;;0.82;;
80119;SDS011;69425;55.040;82.918;2023-12-22T06:21:51;1.48;;;1.02;;
80119;SDS011;69425;55.040;82.918;2023-12-22T06:26:54;3.13;;;0.80;;
80119;SDS011;69425;55.040;82.918;2023-12-22T06:31:56;3.30;;;1.17;;
80119;SDS011;69425;55.040;82.918;2023-12-22T06:36:57;1.55;;;0.55;;
80119;SDS011;69425;55.040;82.918;2023-12-22T06:42:00;2.08;;;0.68;;
80119;SDS011;69425;55.040;82.918;2023-12-22T06:47:01;2.60;;;1.30;;
80119;SDS011;69425;55.040;82.918;2023-12-22T06:52:02;1.73;;;0.88;;
80119;SDS011;69425;55.040;82.918;2023-12-22T06:57:05;1.50;;;1.10;;
80119;SDS011;69425;55.040;82.918;2023-12-22T07:02:07;2.25;;;0.70;;
80119;SDS011;69425;55.040;82.918;2023-12-22T07:07:08;1.05;;;0.50;;
80119;SDS011;69425;55.040;82.918;2023-12-22T07:12:11;2.60;;;1.17;;
80119;SDS011;69425;55.040;82.918;2023-12-22T07:17:12;1.67;;;1.02;;
80119;SDS011;69425;55.040;82.918;2023-12-22T07:22:13;1.42;;;0.50;;
80119;SDS011;69425;55.040;82.918;2023-12-22T07:27:16;2.40;;;0.75;;
80119;SDS011;69425;55.040;82.918;2023-12-22T07:32:17;2.55;;;0.70;;
80119;SDS011;69425;55.040;82.918;2023-12-22T07:37:19;0.95;;;0.50;;
80119;SDS011;69425;55.040;82.918;2023-12-22T07:42:21;1.35;;;0.90;;
80119;SDS011;69425;55.040;82.918;2023-12-22T07:47:26;0.63;;;0.57;;
80119;SDS011;69425;55.040;82.918;2023-12-22T07:52:27;0.63;;;0.55;;
80119;SDS011;69425;55.040;82.918;2023-12-22T07:57:30;1.25;;;0.77;;
80119;SDS011;69425;55.040;82.918;2023-12-22T08:02:31;0.88;;;0.55;;
80119;SDS011;69425;55.040;82.918;2023-12-22T08:07:32;0.85;;;0.60;;
80119;SDS011;69425;55.040;82.918;2023-12-22T08:12:35;2.42;;;1.23;;
80119;SDS011;69425;55.040;82.918;2023-12-22T08:17:36;0.65;;;0.50;;
80119;SDS011;69425;55.040;82.918;2023-12-22T08:22:38;1.98;;;0.82;;
80119;SDS011;69425;55.040;82.918;2023-12-22T08:27:40;1.58;;;1.13;;
80119;SDS011;69425;55.040;82.918;2023-12-22T08:32:42;2.05;;;0.55;;
80119;SDS011;69425;55.040;82.918;2023-12-22T08:37:43;1.08;;;0.68;;
80119;SDS011;69425;55.040;82.918;2023-12-22T08:42:46;1.70;;;0.70;;
80119;SDS011;69425;55.040;82.918;2023-12-22T08:47:47;1.85;;;0.73;;
80119;SDS011;69425;55.040;82.918;2023-12-22T08:52:48;1.30;;;0.75;;
80119;SDS011;69425;55.040;82.918;2023-12-22T08:57:51;1.23;;;0.68;;
80119;SDS011;69425;55.040;82.918;2023-12-22T09:02:52;0.93;;;0.60;;
80119;SDS011;69425;55.040;82.918;2023-12-22T09:07:54;4.53;;;1.20;;
80119;SDS011;69425;55.040;82.918;2023-12-22T09:12:56;1.95;;;0.85;;
80119;SDS011;69425;55.040;82.918;2023-12-22T09:17:58;3.17;;;1.38;;
80119;SDS011;69425;55.040;82.918;2023-12-22T09:22:59;1.80;;;1.17;;
80119;SDS011;69425;55.040;82.918;2023-12-22T09:28:02;0.47;;;0.47;;
80119;SDS011;69425;55.040;82.918;2023-12-22T09:33:03;2.85;;;0.85;;
80119;SDS011;69425;55.040;82.918;2023-12-22T09:38:05;1.85;;;1.17;;
80119;SDS011;69425;55.040;82.918;2023-12-22T09:43:07;2.15;;;0.93;;
80119;SDS011;69425;55.040;82.918;2023-12-22T09:48:09;2.00;;;0.98;;
80119;SDS011;69425;55.040;82.918;2023-12-22T09:58:15;3.00;;;0.77;;
80119;SDS011;69425;55.040;82.918;2023-12-22T10:03:16;2.85;;;1.55;;
80119;SDS011;69425;55.040;82.918;2023-12-22T10:08:19;2.53;;;0.90;;
80119;SDS011;69425;55.040;82.918;2023-12-22T10:13:22;2.05;;;1.00;;
80119;SDS011;69425;55.040;82.918;2023-12-22T10:18:24;2.50;;;1.23;;
80119;SDS011;69425;55.040;82.918;2023-12-22T10:23:25;1.98;;;0.98;;
80119;SDS011;69425;55.040;82.918;2023-12-22T10:28:28;1.88;;;0.70;;
80119;SDS011;69425;55.040;82.918;2023-12-22T10:33:30;1.42;;;1.13;;
80119;SDS011;69425;55.040;82.918;2023-12-22T10:38:32;2.67;;;1.30;;
80119;SDS011;69425;55.040;82.918;2023-12-22T10:43:38;1.15;;;0.88;;
80119;SDS011;69425;55.040;82.918;2023-12-22T10:48:39;3.72;;;1.33;;
80119;SDS011;69425;55.040;82.918;2023-12-22T10:53:41;0.77;;;0.70;;
80119;SDS011;69425;55.040;82.918;2023-12-22T10:58:44;1.38;;;1.00;;
80119;SDS011;69425;55.040;82.918;2023-12-22T11:03:45;2.53;;;1.02;;
80119;SDS011;69425;55.040;82.918;2023-12-22T11:08:51;4.22;;;1.60;;
80119;SDS011;69425;55.040;82.918;2023-12-22T11:18:55;3.92;;;2.25;;
80119;SDS011;69425;55.040;82.918;2023-12-22T11:23:57;1.63;;;1.02;;
80119;SDS011;69425;55.040;82.918;2023-12-22T11:29:00;3.00;;;1.20;;
80119;SDS011;69425;55.040;82.918;2023-12-22T11:34:03;2.40;;;1.90;;
80119;SDS011;69425;55.040;82.918;2023-12-22T11:39:05;6.63;;;1.45;;
80119;SDS011;69425;55.040;82.918;2023-12-22T11:44:08;2.30;;;1.40;;
80119;SDS011;69425;55.040;82.918;2023-12-22T11:49:10;3.55;;;2.17;;
80119;SDS011;69425;55.040;82.918;2023-12-22T11:59:46;6.18;;;2.58;;
80119;SDS011;69425;55.040;82.918;2023-12-22T12:04:47;4.95;;;1.63;;
80119;SDS011;69425;55.040;82.918;2023-12-22T12:09:49;6.53;;;2.90;;
80119;SDS011;69425;55.040;82.918;2023-12-22T12:14:52;4.97;;;2.30;;
80119;SDS011;69425;55.040;82.918;2023-12-22T12:19:57;3.28;;;1.90;;
80119;SDS011;69425;55.040;82.918;2023-12-22T12:24:59;9.43;;;2.72;;
80119;SDS011;69425;55.040;82.918;2023-12-22T12:30:05;6.55;;;2.30;;
80119;SDS011;69425;55.040;82.918;2023-12-22T12:35:11;5.65;;;3.00;;
80119;SDS011;69425;55.040;82.918;2023-12-22T12:40:13;4.45;;;2.10;;
80119;SDS011;69425;55.040;82.918;2023-12-22T12:50:21;9.20;;;2.22;;
80119;SDS011;69425;55.040;82.918;2023-12-22T12:55:23;4.60;;;1.98;;
80119;SDS011;69425;55.040;82.918;2023-12-22T13:00:26;6.38;;;2.45;;
80119;SDS011;69425;55.040;82.918;2023-12-22T13:05:28;6.53;;;2.63;;
80119;SDS011;69425;55.040;82.918;2023-12-22T13:10:29;4.07;;;1.33;;
80119;SDS011;69425;55.040;82.918;2023-12-22T13:15:32;5.47;;;1.45;;
80119;SDS011;69425;55.040;82.918;2023-12-22T13:20:33;2.90;;;1.67;;
80119;SDS011;69425;55.040;82.918;2023-12-22T13:25:38;6.88;;;2.28;;
80119;SDS011;69425;55.040;82.918;2023-12-22T13:30:41;7.95;;;2.40;;
80119;SDS011;69425;55.040;82.918;2023-12-22T13:35:42;4.40;;;2.58;;
80119;SDS011;69425;55.040;82.918;2023-12-22T13:40:44;3.95;;;1.27;;
80119;SDS011;69425;55.040;82.918;2023-12-22T13:45:50;3.95;;;1.95;;
80119;SDS011;69425;55.040;82.918;2023-12-22T13:50:55;2.72;;;1.15;;
80119;SDS011;69425;55.040;82.918;2023-12-22T13:55:57;5.30;;;2.08;;
80119;SDS011;69425;55.040;82.918;2023-12-22T14:01:00;8.23;;;2.72;;
80119;SDS011;69425;55.040;82.918;2023-12-22T14:06:13;3.58;;;1.80;;
80119;SDS011;69425;55.040;82.918;2023-12-22T14:11:15;5.50;;;1.92;;
80119;SDS011;69425;55.040;82.918;2023-12-22T14:16:19;4.45;;;2.00;;
80119;SDS011;69425;55.040;82.918;2023-12-22T14:21:20;6.95;;;1.60;;
80119;SDS011;69425;55.040;82.918;2023-12-22T14:26:21;4.75;;;1.50;;
80119;SDS011;69425;55.040;82.918;2023-12-22T14:31:24;4.32;;;1.92;;
80119;SDS011;69425;55.040;82.918;2023-12-22T14:36:25;3.20;;;1.45;;
80119;SDS011;69425;55.040;82.918;2023-12-22T14:41:26;3.05;;;1.60;;
80119;SDS011;69425;55.040;82.918;2023-12-22T14:46:29;3.95;;;1.90;;
80119;SDS011;69425;55.040;82.918;2023-12-22T14:51:34;1.58;;;1.25;;
80119;SDS011;69425;55.040;82.918;2023-12-22T14:56:38;4.72;;;1.63;;
80119;SDS011;69425;55.040;82.918;2023-12-22T15:01:40;3.80;;;1.60;;
80119;SDS011;69425;55.040;82.918;2023-12-22T15:06:42;3.67;;;1.73;;
80119;SDS011;69425;55.040;82.918;2023-12-22T15:11:43;2.25;;;1.10;;
80119;SDS011;69425;55.040;82.918;2023-12-22T15:16:46;4.53;;;1.27;;
80119;SDS011;69425;55.040;82.918;2023-12-22T15:21:48;2.47;;;1.55;;
80119;SDS011;69425;55.040;82.918;2023-12-22T15:26:49;2.35;;;1.08;;
80119;SDS011;69425;55.040;82.918;2023-12-22T15:36:53;2.20;;;1.10;;
80119;SDS011;69425;55.040;82.918;2023-12-22T15:41:55;2.33;;;1.05;;
80119;SDS011;69425;55.040;82.918;2023-12-22T15:46:58;2.80;;;1.40;;
80119;SDS011;69425;55.040;82.918;2023-12-22T15:51:59;7.07;;;2.03;;
80119;SDS011;69425;55.040;82.918;2023-12-22T15:57:00;4.22;;;1.70;;
80119;SDS011;69425;55.040;82.918;2023-12-22T16:02:03;3.67;;;2.42;;
80119;SDS011;69425;55.040;82.918;2023-12-22T16:07:04;2.63;;;1.10;;
80119;SDS011;69425;55.040;82.918;2023-12-22T16:12:06;3.55;;;1.23;;
80119;SDS011;69425;55.040;82.918;2023-12-22T16:17:08;5.18;;;2.17;;
80119;SDS011;69425;55.040;82.918;2023-12-22T16:22:10;2.83;;;1.50;;
80119;SDS011;69425;55.040;82.918;2023-12-22T16:27:11;3.92;;;2.67;;
80119;SDS011;69425;55.040;82.918;2023-12-22T16:32:14;3.78;;;2.08;;
80119;SDS011;69425;55.040;82.918;2023-12-22T16:37:15;4.32;;;2.10;;
80119;SDS011;69425;55.040;82.918;2023-12-22T16:42:17;5.93;;;3.13;;
80119;SDS011;69425;55.040;82.918;2023-12-22T16:47:19;6.10;;;1.70;;
80119;SDS011;69425;55.040;82.918;2023-12-22T16:52:21;6.72;;;2.22;;
80119;SDS011;69425;55.040;82.918;2023-12-22T16:57:22;7.55;;;2.40;;
80119;SDS011;69425;55.040;82.918;2023-12-22T17:02:25;8.80;;;2.53;;
80119;SDS011;69425;55.040;82.918;2023-12-22T17:07:26;2.65;;;1.33;;
80119;SDS011;69425;55.040;82.918;2023-12-22T17:12:27;3.13;;;1.90;;
80119;SDS011;69425;55.040;82.918;2023-12-22T17:17:30;4.38;;;2.80;;
80119;SDS011;69425;55.040;82.918;2023-12-22T17:22:31;4.97;;;1.85;;
80119;SDS011;69425;55.040;82.918;2023-12-22T17:27:32;2.58;;;1.52;;
80119;SDS011;69425;55.040;82.918;2023-12-22T17:32:35;4.50;;;2.38;;
80119;SDS011;69425;55.040;82.918;2023-12-22T17:37:36;7.80;;;1.80;;
80119;SDS011;69425;55.040;82.918;2023-12-22T17:42:37;4.80;;;2.05;;
80119;SDS011;69425;55.040;82.918;2023-12-22T17:47:40;6.75;;;1.98;;
80119;SDS011;69425;55.040;82.918;2023-12-22T17:52:41;6.30;;;2.10;;
80119;SDS011;69425;55.040;82.918;2023-12-22T17:57:42;3.33;;;1.60;;
80119;SDS011;69425;55.040;82.918;2023-12-22T18:02:45;4.70;;;1.75;;
80119;SDS011;69425;55.040;82.918;2023-12-22T18:07:46;14.10;;;4.28;;
80119;SDS011;69425;55.040;82.918;2023-12-22T18:12:48;6.60;;;3.20;;
80119;SDS011;69425;55.040;82.918;2023-12-22T18:17:50;5.90;;;1.98;;
80119;SDS011;69425;55.040;82.918;2023-12-22T18:22:51;6.15;;;2.17;;
80119;SDS011;69425;55.040;82.918;2023-12-22T18:27:53;8.93;;;2.88;;
80119;SDS011;69425;55.040;82.918;2023-12-22T18:32:55;4.68;;;2.28;;
80119;SDS011;69425;55.040;82.918;2023-12-22T18:37:57;9.30;;;2.72;;
80119;SDS011;69425;55.040;82.918;2023-12-22T18:42:58;9.80;;;3.03;;
80119;SDS011;69425;55.040;82.918;2023-12-22T18:48:02;9.18;;;3.15;;
80119;SDS011;69425;55.040;82.918;2023-12-22T18:53:03;5.40;;;2.38;;
80119;SDS011;69425;55.040;82.918;2023-12-22T18:58:04;7.07;;;2.95;;
80119;SDS011;69425;55.040;82.918;2023-12-22T19:03:07;5.28;;;1.85;;
80119;SDS011;69425;55.040;82.918;2023-12-22T19:08:08;10.70;;;2.95;;
80119;SDS011;69425;55.040;82.918;2023-12-22T19:13:10;6.43;;;2.78;;
80119;SDS011;69425;55.040;82.918;2023-12-22T19:18:12;8.30;;;3.35;;
80119;SDS011;69425;55.040;82.918;2023-12-22T19:23:14;6.00;;;2.13;;
80119;SDS011;69425;55.040;82.918;2023-12-22T19:28:15;6.95;;;2.47;;
80119;SDS011;69425;55.040;82.918;2023-12-22T19:33:18;5.85;;;2.85;;
80119;SDS011;69425;55.040;82.918;2023-12-22T19:38:19;6.20;;;3.10;;
80119;SDS011;69425;55.040;82.918;2023-12-22T19:43:20;5.72;;;2.17;;
80119;SDS011;69425;55.040;82.918;2023-12-22T19:48:23;6.68;;;2.65;;
80119;SDS011;69425;55.040;82.918;2023-12-22T19:53:24;7.97;;;2.47;;
80119;SDS011;69425;55.040;82.918;2023-12-22T19:58:25;4.05;;;1.85;;
80119;SDS011;69425;55.040;82.918;2023-12-22T20:03:28;4.65;;;1.85;;
80119;SDS011;69425;55.040;82.918;2023-12-22T20:08:29;4.93;;;2.58;;
80119;SDS011;69425;55.040;82.918;2023-12-22T20:13:30;4.25;;;2.50;;
80119;SDS011;69425;55.040;82.918;2023-12-22T20:18:33;9.77;;;3.42;;
80119;SDS011;69425;55.040;82.918;2023-12-22T20:23:34;5.70;;;2.33;;
80119;SDS011;69425;55.040;82.918;2023-12-22T20:28:36;4.22;;;2.00;;
80119;SDS011;69425;55.040;82.918;2023-12-22T20:33:38;10.57;;;3.30;;
80119;SDS011;69425;55.040;82.918;2023-12-22T20:38:39;11.65;;;3.17;;
80119;SDS011;69425;55.040;82.918;2023-12-22T20:43:41;9.43;;;2.80;;
80119;SDS011;69425;55.040;82.918;2023-12-22T20:48:43;7.18;;;2.80;;
80119;SDS011;69425;55.040;82.918;2023-12-22T20:53:45;8.48;;;3.80;;
80119;SDS011;69425;55.040;82.918;2023-12-22T20:58:46;5.07;;;2.38;;
80119;SDS011;69425;55.040;82.918;2023-12-22T21:03:49;8.10;;;3.53;;
80119;SDS011;69425;55.040;82.918;2023-12-22T21:08:50;9.95;;;3.38;;
80119;SDS011;69425;55.040;82.918;2023-12-22T21:13:51;8.25;;;2.72;;
80119;SDS011;69425;55.040;82.918;2023-12-22T21:18:54;10.80;;;4.38;;
80119;SDS011;69425;55.040;82.918;2023-12-22T21:23:55;4.88;;;1.98;;
80119;SDS011;69425;55.040;82.918;2023-12-22T21:28:56;5.35;;;3.42;;
80119;SDS011;69425;55.040;82.918;2023-12-22T21:33:59;7.35;;;3.17;;
80119;SDS011;69425;55.040;82.918;2023-12-22T21:39:00;5.78;;;3.08;;
80119;SDS011;69425;55.040;82.918;2023-12-22T21:44:01;6.22;;;2.70;;
80119;SDS011;69425;55.040;82.918;2023-12-22T21:49:04;4.97;;;2.47;;
80119;SDS011;69425;55.040;82.918;2023-12-22T21:54:05;13.27;;;4.25;;
80119;SDS011;69425;55.040;82.918;2023-12-22T21:59:06;7.68;;;3.25;;
80119;SDS011;69425;55.040;82.918;2023-12-22T22:04:09;7.07;;;3.50;;
80119;SDS011;69425;55.040;82.918;2023-12-22T22:09:11;8.10;;;2.65;;
80119;SDS011;69425;55.040;82.918;2023-12-22T22:14:12;6.00;;;2.97;;
80119;SDS011;69425;55.040;82.918;2023-12-22T22:19:15;3.88;;;2.05;;
80119;SDS011;69425;55.040;82.918;2023-12-22T22:24:16;5.93;;;3.00;;
80119;SDS011;69425;55.040;82.918;2023-12-22T22:29:17;5.95;;;3.22;;
80119;SDS011;69425;55.040;82.918;2023-12-22T22:34:20;7.25;;;2.40;;
80119;SDS011;69425;55.040;82.918;2023-12-22T22:39:21;7.35;;;3.08;;
80119;SDS011;69425;55.040;82.918;2023-12-22T22:44:22;11.80;;;3.78;;
80119;SDS011;69425;55.040;82.918;2023-12-22T22:49:25;5.53;;;2.50;;
80119;SDS011;69425;55.040;82.918;2023-12-22T22:54:26;8.98;;;3.25;;
80119;SDS011;69425;55.040;82.918;2023-12-22T22:59:27;9.68;;;3.78;;
80119;SDS011;69425;55.040;82.918;2023-12-22T23:04:30;10.25;;;3.13;;
80119;SDS011;69425;55.040;82.918;2023-12-22T23:09:32;5.63;;;2.85;;
80119;SDS011;69425;55.040;82.918;2023-12-22T23:14:33;3.80;;;2.45;;
80119;SDS011;69425;55.040;82.918;2023-12-22T23:19:35;4.28;;;2.47;;
80119;SDS011;69425;55.040;82.918;2023-12-22T23:24:37;8.93;;;3.88;;
80119;SDS011;69425;55.040;82.918;2023-12-22T23:29:38;4.90;;;1.88;;
80119;SDS011;69425;55.040;82.918;2023-12-22T23:34:40;7.25;;;3.20;;
80119;SDS011;69425;55.040;82.918;2023-12-22T23:39:42;4.80;;;2.00;;
80119;SDS011;69425;55.040;82.918;2023-12-22T23:44:43;6.38;;;2.45;;
80119;SDS011;69425;55.040;82.918;2023-12-22T23:49:46;9.05;;;2.95;;
80119;SDS011;69425;55.040;82.918;2023-12-22T23:54:47;4.90;;;2.67;;
80119;SDS011;69425;55.040;82.918;2023-12-22T23:59:48;8.52;;;3.90;;
